createdAt,value
2019-02-26T12:09:45.612Z,96.80
2019-02-26T12:12:13.509Z,92.40
2019-02-26T12:14:43.214Z,93.80
2019-02-26T12:17:10.626Z,92.60
2019-02-26T12:19:38.209Z,94.60
2019-02-26T12:22:06.223Z,93.10
2019-02-26T12:24:35.958Z,93.90
2019-02-26T12:27:03.748Z,92.70
2019-02-26T12:29:31.337Z,94.30
2019-02-26T12:32:01.192Z,92.90
2019-02-26T12:34:29.270Z,91.10
2019-02-26T12:36:59.634Z,74.50
2019-02-26T12:39:29.230Z,73.50
2019-02-26T12:41:56.763Z,73.10
2019-02-26T12:44:24.340Z,72.90
2019-02-26T12:46:53.692Z,73.50
2019-02-26T12:49:22.850Z,73.70
2019-02-26T12:51:53.742Z,78.30
2019-02-26T12:54:20.121Z,77.30
2019-02-26T12:56:49.051Z,81.20
2019-02-26T12:59:17.509Z,77.70
2019-02-26T13:01:46.807Z,78.10
2019-02-26T13:04:17.453Z,78.90
2019-02-26T13:06:48.431Z,79.30
2019-02-26T13:09:15.504Z,81.00
2019-02-26T13:12:00.511Z,79.40
2019-02-26T13:14:12.727Z,80.20
2019-02-26T13:16:42.490Z,76.00
2019-02-26T13:19:11.230Z,78.50
2019-02-26T13:21:42.728Z,73.80
2019-02-26T13:24:13.922Z,75.80
2019-02-26T13:26:38.948Z,79.00
2019-02-26T13:29:07.850Z,78.40
2019-02-26T13:31:41.904Z,77.90
2019-02-26T13:34:05.587Z,81.00
2019-02-26T13:36:36.353Z,81.00
2019-02-26T13:39:06.192Z,81.50
2019-02-26T13:41:38.845Z,81.50
2019-02-26T13:44:03.938Z,78.70
2019-02-26T13:46:31.661Z,82.80
2019-02-26T13:48:59.553Z,83.60
2019-02-26T13:51:29.081Z,83.00
2019-02-26T13:53:56.614Z,80.30
2019-02-26T13:56:24.256Z,83.90
2019-02-26T13:58:52.216Z,83.30
2019-02-26T14:01:19.832Z,83.90
2019-02-26T14:03:47.482Z,88.60
2019-02-26T14:06:15.362Z,84.00
2019-02-26T14:08:43.015Z,86.00
2019-02-26T14:11:10.635Z,85.60
2019-02-26T14:13:38.253Z,85.40
2019-02-26T14:16:05.927Z,83.50
2019-02-26T14:18:33.765Z,84.60
2019-02-26T14:21:01.702Z,88.10
2019-02-26T14:23:34.750Z,85.80
2019-02-26T14:25:59.269Z,83.10
2019-02-26T14:28:26.915Z,86.10
2019-02-26T14:30:55.150Z,87.80
2019-02-26T14:33:23.118Z,85.00
2019-02-26T14:35:50.943Z,85.00
2019-02-26T14:38:18.931Z,85.10
2019-02-26T14:40:46.677Z,86.40
2019-02-26T14:43:14.270Z,86.40
2019-02-26T14:45:41.890Z,88.20
2019-02-26T14:48:09.762Z,87.70
2019-02-26T14:50:37.376Z,89.90
2019-02-26T14:53:05.042Z,91.20
2019-02-26T14:55:32.684Z,92.80
2019-02-26T14:58:00.306Z,92.90
2019-02-26T15:00:27.924Z,93.40
2019-02-26T15:02:55.671Z,92.60
2019-02-26T15:05:23.585Z,92.40
2019-02-26T15:07:51.193Z,92.90
2019-02-26T15:10:20.520Z,92.80
2019-02-26T15:12:48.399Z,87.80
2019-02-26T15:15:15.995Z,83.70
2019-02-26T15:17:43.651Z,83.90
2019-02-26T15:20:13.312Z,82.10
2019-02-26T15:22:41.128Z,82.70
2019-02-26T15:25:12.094Z,83.10
2019-02-26T15:27:40.020Z,84.90
2019-02-26T15:30:09.386Z,84.20
2019-02-26T15:32:37.022Z,83.20
2019-02-26T15:35:04.951Z,84.10
2019-02-26T15:37:33.599Z,87.20
2019-02-26T15:40:01.196Z,88.00
2019-02-26T15:42:28.846Z,91.10
